Boxville, Kentucky
Current Conditions -  °F | °C
As of 10:15 PM on Wednesday 26 Nov 2014 (Local Time) from KEHR Reporting Station
Overcast Overcast  
Wind Chill: 34°   Ceiling: 400
Heat Index: 34°   Visibility: 2.5mi
Dew Point: 30°   Wind: 0mph
Humidity: 87%   Direction: NA
Pressure: 30.07"   Gusts: NA
Location:  37.6418°N, 87.8654°W
Report Text: KEHR 270415Z AUTO 00000KT 2 1/2SM OVC004 01/M01 A3007 RMK AO1
Loading
Personal Weather Stations






























Interactive Weather Map New forecast layout! Learn more

10-Day Weather Forecast

Advertisements
Track Severe Weather on mobile